createdAt,value
2022-08-17T00:01:27.578Z,11.4
2022-08-17T00:04:16.020Z,10.8
2022-08-17T00:07:06.608Z,11.5
2022-08-17T00:09:55.192Z,10.7
2022-08-17T00:12:44.554Z,11.3
2022-08-17T00:15:32.730Z,11
2022-08-17T00:19:07.023Z,10.6
2022-08-17T00:22:32.747Z,11.5
2022-08-17T00:25:23.280Z,10.7
2022-08-17T00:28:11.098Z,11.4
2022-08-17T00:31:00.736Z,11.7
2022-08-17T00:33:48.464Z,11.8
2022-08-17T00:36:36.172Z,12
2022-08-17T00:39:23.852Z,11.9
2022-08-17T00:42:11.491Z,12.1
2022-08-17T00:45:00.430Z,12.6
2022-08-17T00:47:49.600Z,11.3
2022-08-17T00:50:37.151Z,12.3
2022-08-17T00:53:28.241Z,11.4
2022-08-17T00:56:18.192Z,12
2022-08-17T00:59:11.129Z,12
2022-08-17T01:02:02.987Z,12
2022-08-17T01:04:54.249Z,12.1
2022-08-17T01:07:42.299Z,13
2022-08-17T01:10:58.417Z,12.2
2022-08-17T01:13:50.819Z,11.9
2022-08-17T01:16:38.718Z,11.4
2022-08-17T01:19:26.385Z,12.1
2022-08-17T01:22:20.569Z,11.2
2022-08-17T01:25:09.294Z,11.1
2022-08-17T01:27:57.607Z,11.1
2022-08-17T01:30:57.060Z,10.8
2022-08-17T01:33:50.293Z,12
2022-08-17T01:36:38.544Z,11.7
2022-08-17T01:39:29.292Z,10.8
2022-08-17T01:42:21.640Z,10.4
2022-08-17T01:45:15.749Z,10.8
2022-08-17T01:48:07.758Z,10.3
2022-08-17T01:50:56.541Z,11.7
2022-08-17T01:53:44.243Z,11.7
2022-08-17T01:56:37.010Z,12.2
2022-08-17T01:59:27.290Z,12.2
2022-08-17T02:02:30.607Z,11.9
2022-08-17T02:05:19.213Z,11.8
2022-08-17T02:08:06.850Z,12
2022-08-17T02:10:54.533Z,10.1
2022-08-17T02:13:42.392Z,10.5
2022-08-17T02:16:36.879Z,11
2022-08-17T02:19:27.396Z,10.8
2022-08-17T02:22:17.045Z,11.2
2022-08-17T02:25:05.282Z,11.5
2022-08-17T02:27:54.991Z,11.5
2022-08-17T02:30:59.600Z,10.2
2022-08-17T02:34:00.473Z,11.9
2022-08-17T02:36:52.023Z,11.6
2022-08-17T02:39:39.953Z,10.9
2022-08-17T02:42:27.487Z,11.8
2022-08-17T02:45:18.517Z,11.6
2022-08-17T02:48:08.744Z,11.4
2022-08-17T02:50:56.421Z,11.4
2022-08-17T02:53:44.240Z,12.6
2022-08-17T02:56:32.011Z,11.6
2022-08-17T02:59:19.742Z,11.2
2022-08-17T03:02:09.073Z,10.8
2022-08-17T03:04:57.255Z,12.3
2022-08-17T03:07:44.781Z,12
2022-08-17T03:10:32.593Z,12
2022-08-17T03:13:20.416Z,11.8
2022-08-17T03:16:08.228Z,11.5
2022-08-17T03:18:55.951Z,12.4
2022-08-17T03:21:43.654Z,11.7
2022-08-17T03:24:31.525Z,11.8
2022-08-17T03:27:19.505Z,12.6
2022-08-17T03:30:07.805Z,11.8
2022-08-17T03:32:57.994Z,11.8
2022-08-17T03:35:48.486Z,11.5
2022-08-17T03:38:39.404Z,11.1
2022-08-17T03:41:27.196Z,12.4
2022-08-17T03:44:14.776Z,11.5
2022-08-17T03:47:02.476Z,11.2
2022-08-17T03:50:22.219Z,11.8
2022-08-17T03:54:13.465Z,11.7
2022-08-17T03:57:32.902Z,11.6
2022-08-17T04:00:21.518Z,12.5
2022-08-17T04:03:09.272Z,13.1
2022-08-17T04:05:57.392Z,13.1
2022-08-17T04:08:46.966Z,13.1
2022-08-17T04:11:34.585Z,14.7
2022-08-17T04:14:23.001Z,15.8
2022-08-17T04:17:10.529Z,15
2022-08-17T04:19:58.726Z,15.2
2022-08-17T04:22:46.486Z,14.6
2022-08-17T04:25:43.255Z,14.4
2022-08-17T04:28:33.895Z,14.7
2022-08-17T04:31:21.530Z,16.9
2022-08-17T04:34:09.253Z,15.9
2022-08-17T04:36:57.457Z,14.2
2022-08-17T04:39:45.126Z,16
2022-08-17T04:44:51.275Z,15.6
2022-08-17T04:47:41.740Z,15.7
2022-08-17T04:50:29.310Z,14.7
2022-08-17T04:53:18.353Z,15.9
2022-08-17T04:56:06.503Z,16.3
2022-08-17T04:58:55.492Z,15.2
2022-08-17T05:01:45.816Z,14.8
2022-08-17T05:04:36.637Z,15.1
2022-08-17T05:07:31.320Z,14.8
2022-08-17T05:10:19.167Z,14.9
2022-08-17T05:13:07.011Z,14.1
2022-08-17T05:16:00.000Z,14.6
2022-08-17T05:18:49.432Z,15.4
2022-08-17T05:21:37.913Z,15.1
2022-08-17T05:24:42.849Z,14.5
2022-08-17T05:27:41.261Z,14.6
2022-08-17T05:30:30.703Z,14.2
2022-08-17T05:33:19.484Z,14.3
2022-08-17T05:36:09.939Z,14.6
2022-08-17T05:39:30.321Z,13.1
2022-08-17T05:42:18.429Z,14.6
2022-08-17T05:45:06.226Z,14.4
2022-08-17T05:47:55.654Z,13.8
2022-08-17T05:50:43.461Z,14.1
2022-08-17T05:53:40.245Z,12.4
2022-08-17T05:56:41.598Z,13.2
2022-08-17T05:59:52.807Z,13.6
2022-08-17T06:02:50.687Z,13.7
2022-08-17T06:05:52.744Z,13.2
2022-08-17T06:08:51.620Z,13.5
2022-08-17T06:11:58.732Z,13.3
2022-08-17T06:14:57.882Z,13
2022-08-17T06:17:58.933Z,14
2022-08-17T06:20:51.780Z,13.7
2022-08-17T06:23:48.599Z,12.7
2022-08-17T06:26:43.435Z,13.2
2022-08-17T06:29:31.736Z,12.3
2022-08-17T06:32:27.196Z,12.7
2022-08-17T06:35:15.904Z,13.2
2022-08-17T06:38:38.110Z,13.2
2022-08-17T06:41:37.937Z,12.7
2022-08-17T06:44:50.234Z,13.2
2022-08-17T06:47:48.178Z,12
2022-08-17T06:50:41.461Z,11.7
2022-08-17T06:53:34.085Z,11.6
2022-08-17T06:56:52.648Z,12.8
2022-08-17T06:59:55.873Z,13.3
2022-08-17T07:03:02.417Z,12.2
2022-08-17T07:06:01.105Z,12.4
2022-08-17T07:08:53.608Z,12.8
2022-08-17T07:11:46.543Z,12.8
2022-08-17T07:14:37.386Z,12
2022-08-17T07:17:47.719Z,12.8
2022-08-17T07:20:36.002Z,12.9
2022-08-17T07:23:28.784Z,12
2022-08-17T07:26:24.787Z,12.1
2022-08-17T07:29:13.366Z,12.6
2022-08-17T07:32:04.593Z,11.5
2022-08-17T07:34:54.029Z,11.6
2022-08-17T07:37:55.361Z,11.9
2022-08-17T07:40:55.603Z,11.6
2022-08-17T07:43:50.771Z,12
2022-08-17T07:46:38.530Z,11.7
2022-08-17T07:50:09.435Z,13.4
2022-08-17T07:53:11.722Z,12.1
2022-08-17T07:56:03.546Z,13
2022-08-17T07:58:51.594Z,12
2022-08-17T08:01:56.216Z,11.6
2022-08-17T08:05:02.257Z,10.8
2022-08-17T08:07:57.593Z,11.6
2022-08-17T08:10:48.519Z,12.1
2022-08-17T08:13:46.023Z,11.4
2022-08-17T08:16:34.570Z,10.3
2022-08-17T08:19:22.204Z,10.3
2022-08-17T08:22:10.745Z,10.5
2022-08-17T08:25:07.514Z,10.3
2022-08-17T08:28:27.035Z,10.6
2022-08-17T08:31:20.975Z,10.1
2022-08-17T08:34:59.016Z,9.3
2022-08-17T08:37:55.029Z,9.1
2022-08-17T08:40:52.292Z,9.7
2022-08-17T08:43:53.326Z,8.9
2022-08-17T08:46:53.046Z,9.5
2022-08-17T08:50:03.276Z,9.4
2022-08-17T08:53:10.511Z,9.2
2022-08-17T08:56:10.536Z,8.9
2022-08-17T08:59:07.532Z,9.5
2022-08-17T09:02:09.776Z,8.9
2022-08-17T09:05:25.925Z,8.6
2022-08-17T09:08:25.912Z,8
2022-08-17T09:11:27.354Z,8.6
2022-08-17T09:14:28.815Z,8.9
2022-08-17T09:17:24.156Z,9.3
2022-08-17T09:20:27.196Z,8.6
2022-08-17T09:23:25.165Z,8.4
2022-08-17T09:26:18.313Z,8.1
2022-08-17T09:29:10.072Z,7.9
2022-08-17T09:32:00.927Z,8
2022-08-17T09:34:54.701Z,7
2022-08-17T09:37:47.362Z,7.9
2022-08-17T09:40:48.308Z,7.5
2022-08-17T09:43:42.429Z,8.3
2022-08-17T09:46:38.794Z,8.2
2022-08-17T09:49:33.034Z,6.6
2022-08-17T09:52:27.277Z,7.6
2022-08-17T09:55:17.044Z,7.1
2022-08-17T09:58:05.945Z,7.5
2022-08-17T10:01:02.592Z,7.6
2022-08-17T10:04:02.825Z,7
2022-08-17T10:07:04.170Z,7.6
2022-08-17T10:10:00.227Z,7.8
2022-08-17T10:12:57.780Z,6.9
2022-08-17T10:15:54.658Z,7.2
2022-08-17T10:18:48.195Z,7.5
2022-08-17T10:21:49.763Z,7.4
2022-08-17T10:25:48.720Z,7
2022-08-17T10:29:00.664Z,7.8
2022-08-17T10:32:01.462Z,7.6
2022-08-17T10:34:55.417Z,8.1
2022-08-17T10:37:59.466Z,7.6
2022-08-17T10:41:08.283Z,8.1
2022-08-17T10:44:38.381Z,7.9
2022-08-17T10:47:52.840Z,8.7
2022-08-17T10:50:48.102Z,7.4
2022-08-17T10:53:46.514Z,6.9
2022-08-17T10:56:39.580Z,5.8
2022-08-17T10:59:31.564Z,7
2022-08-17T11:02:38.369Z,6.3
2022-08-17T11:05:34.082Z,6.4
2022-08-17T11:08:44.984Z,6.4
2022-08-17T11:11:54.209Z,6.4
2022-08-17T11:14:55.065Z,7
2022-08-17T11:17:55.205Z,6.2
2022-08-17T11:20:58.306Z,7.1
2022-08-17T11:24:07.353Z,6.4
2022-08-17T11:27:01.512Z,6
2022-08-17T11:30:01.417Z,6.1
2022-08-17T11:32:54.707Z,6.1
2022-08-17T11:35:43.005Z,7.1
2022-08-17T11:38:36.318Z,7.4
2022-08-17T11:41:35.348Z,7.2
2022-08-17T11:44:33.443Z,6.6
2022-08-17T11:47:36.223Z,6.3
2022-08-17T11:51:01.856Z,7
2022-08-17T11:54:32.798Z,6.7
2022-08-17T11:57:25.829Z,6.4
2022-08-17T12:00:46.869Z,6.1
2022-08-17T12:03:41.179Z,6.1
2022-08-17T12:06:33.727Z,6.4
2022-08-17T12:09:33.375Z,7
2022-08-17T12:12:26.519Z,6.8
2022-08-17T12:15:18.853Z,6.1
2022-08-17T12:18:15.009Z,6.5
2022-08-17T12:21:09.181Z,5.3
2022-08-17T12:24:28.436Z,5.5
2022-08-17T12:27:43.215Z,6
2022-08-17T12:31:06.786Z,5.4
2022-08-17T12:34:07.173Z,5.5
2022-08-17T12:37:01.158Z,6.5
2022-08-17T12:39:52.281Z,6.3
2022-08-17T12:42:43.581Z,5.7
2022-08-17T12:45:41.419Z,5.7
2022-08-17T12:48:38.720Z,6.1
2022-08-17T12:52:09.804Z,6.3
2022-08-17T12:55:00.696Z,5.7
2022-08-17T12:57:52.295Z,5.9
2022-08-17T13:00:47.557Z,5.8
2022-08-17T13:03:41.742Z,6
2022-08-17T13:06:33.981Z,6
2022-08-17T13:09:21.942Z,5.9
2022-08-17T13:12:23.436Z,5.7
2022-08-17T13:15:14.713Z,5.8
2022-08-17T13:18:07.728Z,6.5
2022-08-17T13:21:20.689Z,5.9
2022-08-17T13:24:15.036Z,6
2022-08-17T13:27:07.776Z,6.6
2022-08-17T13:29:59.882Z,5.6
2022-08-17T13:32:56.417Z,5.1
2022-08-17T13:35:46.505Z,5.7
2022-08-17T13:38:51.301Z,6
2022-08-17T13:41:52.052Z,6
2022-08-17T13:44:40.683Z,6.2
2022-08-17T13:47:28.608Z,5.4
2022-08-17T13:50:17.859Z,6
2022-08-17T13:53:06.574Z,5.7
2022-08-17T13:56:04.808Z,6
2022-08-17T13:58:56.306Z,5.7
2022-08-17T14:01:52.547Z,5.9
2022-08-17T14:04:41.846Z,5.6
2022-08-17T14:07:31.569Z,5.5
2022-08-17T14:10:22.962Z,6
2022-08-17T14:13:10.906Z,5.7
2022-08-17T14:15:59.986Z,5.8
2022-08-17T14:18:56.680Z,5.6
2022-08-17T14:21:46.001Z,5.6
2022-08-17T14:24:33.799Z,4.9
2022-08-17T14:27:25.002Z,5.9
2022-08-17T14:30:13.126Z,5.2
2022-08-17T14:33:01.975Z,5.6
2022-08-17T14:35:50.558Z,5.1
2022-08-17T14:38:38.244Z,4.9
2022-08-17T14:41:25.636Z,6
2022-08-17T14:44:13.577Z,5.6
2022-08-17T14:47:01.647Z,6
2022-08-17T14:49:49.383Z,5.8
2022-08-17T14:52:36.927Z,5.2
2022-08-17T14:55:25.748Z,4.9
2022-08-17T14:58:14.586Z,6.1
2022-08-17T15:01:02.748Z,5.5
2022-08-17T15:03:52.913Z,5.9
2022-08-17T15:06:40.346Z,5.2
2022-08-17T15:09:28.657Z,5.6
2022-08-17T15:12:19.816Z,5.7
2022-08-17T15:15:09.220Z,6.2
2022-08-17T15:18:00.147Z,5.4
2022-08-17T15:20:47.902Z,5.8
2022-08-17T15:23:35.820Z,5.8
2022-08-17T15:26:26.321Z,5.9
2022-08-17T15:29:14.128Z,5.5
2022-08-17T15:32:02.234Z,5.5
2022-08-17T15:34:49.969Z,5.7
2022-08-17T15:37:41.416Z,6
2022-08-17T15:40:29.726Z,6
2022-08-17T15:43:27.647Z,5.3
2022-08-17T15:46:17.221Z,5.9
2022-08-17T15:49:06.913Z,5.7
2022-08-17T15:51:54.300Z,6.2
2022-08-17T15:54:41.704Z,5.9
2022-08-17T15:57:37.249Z,6
2022-08-17T16:00:24.867Z,6.7
2022-08-17T16:03:56.105Z,6.6
2022-08-17T16:06:55.861Z,5.9
2022-08-17T16:09:43.685Z,6.4
2022-08-17T16:12:31.280Z,6.5
2022-08-17T16:15:19.627Z,6
2022-08-17T16:18:07.175Z,6.5
2022-08-17T16:20:54.964Z,6.7
2022-08-17T16:23:43.056Z,6.4
2022-08-17T16:26:30.713Z,6.6
2022-08-17T16:29:19.440Z,6.2
2022-08-17T16:32:07.535Z,6.7
2022-08-17T16:34:58.361Z,7.1
2022-08-17T16:37:48.203Z,6.8
2022-08-17T16:40:41.785Z,7.4
2022-08-17T16:43:29.199Z,7.5
2022-08-17T16:46:17.215Z,6.4
2022-08-17T16:49:04.624Z,6.3
2022-08-17T16:51:52.907Z,7.5
2022-08-17T16:54:44.909Z,6.2
2022-08-17T16:57:32.291Z,6.4
2022-08-17T17:00:21.954Z,6.9
2022-08-17T17:03:18.961Z,7
2022-08-17T17:06:11.574Z,7.8
2022-08-17T17:09:05.419Z,6.9
2022-08-17T17:11:58.662Z,6.9
2022-08-17T17:14:50.431Z,7.3
2022-08-17T17:17:43.974Z,6.4
2022-08-17T17:20:34.101Z,7.2
2022-08-17T17:23:30.447Z,6.4
2022-08-17T17:26:26.084Z,7.6
2022-08-17T17:29:27.737Z,7.1
2022-08-17T17:32:24.672Z,6.4
2022-08-17T17:35:22.390Z,7.3
2022-08-17T17:38:16.462Z,7
2022-08-17T17:41:08.427Z,6
2022-08-17T17:44:04.183Z,6.6
2022-08-17T17:46:56.687Z,7.3
2022-08-17T17:49:46.815Z,6.7
2022-08-17T17:52:34.455Z,6.6
2022-08-17T17:55:31.984Z,7
2022-08-17T17:58:30.956Z,6.6
2022-08-17T18:01:28.951Z,6.7
2022-08-17T18:04:28.995Z,6.4
2022-08-17T18:07:25.909Z,7
2022-08-17T18:10:30.147Z,7.9
2022-08-17T18:13:30.395Z,8
2022-08-17T18:16:31.908Z,7.7
2022-08-17T18:19:19.837Z,8.4
2022-08-17T18:22:14.428Z,7.2
2022-08-17T18:25:04.269Z,7.3
2022-08-17T18:28:25.240Z,7.2
2022-08-17T18:31:16.804Z,7.5
2022-08-17T18:34:18.604Z,7.7
2022-08-17T18:37:19.526Z,19.4
2022-08-17T18:40:19.804Z,14.7
2022-08-17T18:43:17.868Z,10.7
2022-08-17T18:46:11.292Z,8.9
2022-08-17T18:49:10.120Z,7.1
2022-08-17T18:52:12.516Z,8
2022-08-17T18:55:06.565Z,7.1
2022-08-17T18:57:58.820Z,7.1
2022-08-17T19:01:01.309Z,9
2022-08-17T19:04:02.113Z,8.9
2022-08-17T19:06:49.661Z,8.5
2022-08-17T19:09:55.267Z,9.1
2022-08-17T19:13:00.488Z,8.7
2022-08-17T19:16:14.069Z,8.1
2022-08-17T19:19:07.628Z,7.8
2022-08-17T19:22:02.656Z,7.3
2022-08-17T19:25:02.916Z,7.7
2022-08-17T19:27:58.528Z,7.9
2022-08-17T19:30:53.513Z,7
2022-08-17T19:33:42.846Z,7.7
2022-08-17T19:36:35.979Z,7.8
2022-08-17T19:39:38.066Z,7.3
2022-08-17T19:42:36.334Z,7.2
2022-08-17T19:45:34.543Z,7.4
2022-08-17T19:48:31.317Z,7.9
2022-08-17T19:51:35.925Z,7.5
2022-08-17T19:54:33.620Z,7.4
2022-08-17T19:57:32.633Z,7.1
2022-08-17T20:00:33.029Z,7.2
2022-08-17T20:03:27.172Z,7.3
2022-08-17T20:06:19.676Z,7.2
2022-08-17T20:09:14.750Z,7.9
2022-08-17T20:12:09.024Z,7.5
2022-08-17T20:15:02.264Z,7.7
2022-08-17T20:17:54.539Z,7.8
2022-08-17T20:20:46.887Z,7.6
2022-08-17T20:23:42.951Z,7.9
2022-08-17T20:26:37.966Z,7.3
2022-08-17T20:29:40.758Z,8.2
2022-08-17T20:32:49.937Z,6.6
2022-08-17T20:35:41.035Z,8.2
2022-08-17T20:38:47.348Z,7.5
2022-08-17T20:41:38.776Z,7.7
2022-08-17T20:44:49.478Z,7.7
2022-08-17T20:47:55.098Z,8.4
2022-08-17T20:51:01.261Z,7.8
2022-08-17T20:54:11.980Z,8.1
2022-08-17T20:57:32.560Z,7.4
2022-08-17T21:00:35.660Z,7.4
2022-08-17T21:03:47.630Z,7.7
2022-08-17T21:06:40.733Z,7.5
2022-08-17T21:10:10.302Z,8.9
2022-08-17T21:13:01.246Z,8.1
2022-08-17T21:16:19.578Z,8.1
2022-08-17T21:19:17.496Z,8.4
2022-08-17T21:22:20.654Z,8.6
2022-08-17T21:25:20.042Z,8.6
2022-08-17T21:28:33.674Z,7.7
2022-08-17T21:31:35.184Z,8.9
2022-08-17T21:34:28.080Z,8.7
2022-08-17T21:37:18.385Z,9
2022-08-17T21:40:19.621Z,9
2022-08-17T21:43:12.225Z,8.6
2022-08-17T21:46:08.576Z,8.9
2022-08-17T21:49:13.775Z,8.8
2022-08-17T21:52:04.873Z,8.7
2022-08-17T21:54:52.899Z,8.5
2022-08-17T21:57:53.154Z,8.7
2022-08-17T22:01:13.956Z,9.1
2022-08-17T22:04:08.293Z,8.3
2022-08-17T22:07:05.851Z,9.3
2022-08-17T22:09:55.541Z,8.2
2022-08-17T22:12:43.559Z,9
2022-08-17T22:15:48.285Z,9.6
2022-08-17T22:18:55.527Z,9.8
2022-08-17T22:21:43.925Z,9.2
2022-08-17T22:24:31.513Z,9.1
2022-08-17T22:27:19.661Z,9
2022-08-17T22:30:08.271Z,9.6
2022-08-17T22:33:04.518Z,9.6
2022-08-17T22:36:25.914Z,9.4
2022-08-17T22:39:18.290Z,9.3
2022-08-17T22:42:42.170Z,10.1
2022-08-17T22:45:31.997Z,10.2
2022-08-17T22:48:28.449Z,9.6
2022-08-17T22:51:16.202Z,9.9
2022-08-17T22:54:08.192Z,9.4
2022-08-17T22:57:35.566Z,10.2
2022-08-17T23:01:02.817Z,10.1
2022-08-17T23:04:10.486Z,9.5
2022-08-17T23:07:16.678Z,10.2
2022-08-17T23:10:05.893Z,9.5
2022-08-17T23:12:54.269Z,9.9
2022-08-17T23:15:44.405Z,9.5
2022-08-17T23:18:33.325Z,9.2
2022-08-17T23:21:25.725Z,10.3
2022-08-17T23:24:15.707Z,10
2022-08-17T23:27:08.313Z,10.6
2022-08-17T23:29:56.431Z,10.4
2022-08-17T23:32:47.393Z,10.7
2022-08-17T23:35:45.584Z,10.2
2022-08-17T23:38:33.342Z,10.3
2022-08-17T23:41:21.521Z,10.5
2022-08-17T23:44:18.826Z,9.6
2022-08-17T23:47:08.170Z,11
2022-08-17T23:49:56.486Z,11.1
2022-08-17T23:52:50.994Z,10.9
2022-08-17T23:55:38.921Z,11.7
2022-08-17T23:58:26.646Z,10.7
